Terminal Aerodrome Forecast
Issued by NWS Albuquerque, NM

Home | Current Version | Previous Version | Text Only | Print | Product List | Glossary On
Versions: 1 2 3 4 5 6 7 8 9 10 11 12 13 14 15 16 17
000
FTUS45 KABQ 201100 RRA
TAFABQ
TAF
KABQ 201141Z 2012/2112 12007KT P6SM SCT070 SCT100
     FM201500 27008KT P6SM SCT080 BKN120
     FM202000 30014G22KT P6SM VCSH BKN100
     FM210200 05007KT P6SM SCT120=

USA.gov is the U.S. government's official web portal to all federal, state and local government web resources and services.